Time;durP1;ratioP1;P1;durP2;ratioP2;P2;SDS_P1;SDS_P2;PMS_P1;PMS_P2;Temp;Humidity;BMP_temperature;BMP_pressure;BME280_temperature;BME280_humidity;BME280_pressure;Samples;Min_cycle;Max_cycle;Signal;HPM_P1;HPM_P2
2022/03/20 00:00:38;;;;;;;11.00;7.43;;;;;;;;;;5023579;28;20497;-85
2022/03/20 00:03:07;;;;;;;13.05;7.85;;;;;;;;;;5025288;28;20844;-89
2022/03/20 00:05:34;;;;;;;13.52;8.40;;;;;;;;;;5026896;28;20498;-86
2022/03/20 00:08:01;;;;;;;13.15;8.13;;;;;;;;;;5026079;28;20430;-86
2022/03/20 00:10:27;;;;;;;12.80;7.90;;;;;;;;;;5028469;28;20451;-85
2022/03/20 00:12:53;;;;;;;14.07;7.97;;;;;;;;;;5024353;28;20434;-85
2022/03/20 00:15:20;;;;;;;13.98;7.97;;;;;;;;;;5025794;28;20419;-85
2022/03/20 00:17:46;;;;;;;13.60;8.53;;;;;;;;;;5024141;28;20942;-85
2022/03/20 00:20:14;;;;;;;13.02;8.75;;;;;;;;;;5023521;28;20882;-85
2022/03/20 00:22:41;;;;;;;13.48;7.72;;;;;;;;;;5023615;28;20922;-85
2022/03/20 00:25:07;;;;;;;15.75;8.60;;;;;;;;;;5025470;28;20424;-85
2022/03/20 00:27:34;;;;;;;13.80;8.50;;;;;;;;;;5026253;28;20417;-85
2022/03/20 00:30:00;;;;;;;14.75;8.98;;;;;;;;;;5025593;28;20918;-85
2022/03/20 00:32:26;;;;;;;11.40;8.23;;;;;;;;;;5026609;28;20427;-85
2022/03/20 00:34:56;;;;;;;14.10;9.23;;;;;;;;;;5026878;28;20438;-85
2022/03/20 00:37:24;;;;;;;12.40;9.38;;;;;;;;;;5025604;28;20431;-85
2022/03/20 00:39:50;;;;;;;16.13;9.10;;;;;;;;;;5024675;28;20893;-85
2022/03/20 00:42:17;;;;;;;12.15;9.32;;;;;;;;;;5023378;28;20423;-85
2022/03/20 00:44:43;;;;;;;14.93;9.70;;;;;;;;;;5027444;28;20506;-83
2022/03/20 00:47:09;;;;;;;14.18;9.90;;;;;;;;;;5024878;28;20430;-85
2022/03/20 00:49:35;;;;;;;14.85;10.43;;;;;;;;;;5026439;28;20511;-84
2022/03/20 00:52:03;;;;;;;16.15;10.00;;;;;;;;;;5027054;28;20980;-85
2022/03/20 00:54:31;;;;;;;16.27;10.68;;;;;;;;;;5026831;28;20454;-85
2022/03/20 00:56:58;;;;;;;16.10;10.95;;;;;;;;;;5024852;28;20460;-85
2022/03/20 00:59:24;;;;;;;19.42;11.65;;;;;;;;;;5026725;28;20436;-85
2022/03/20 01:01:51;;;;;;;16.80;12.77;;;;;;;;;;5025211;28;20469;-85
2022/03/20 01:04:17;;;;;;;16.48;12.07;;;;;;;;;;5025391;28;20459;-85
2022/03/20 01:06:43;;;;;;;15.23;11.70;;;;;;;;;;5024792;28;20957;-84
2022/03/20 01:09:09;;;;;;;19.98;13.15;;;;;;;;;;5025696;28;20415;-84
2022/03/20 01:11:38;;;;;;;19.73;13.00;;;;;;;;;;5025460;28;20417;-85
2022/03/20 01:14:05;;;;;;;21.63;12.48;;;;;;;;;;5026467;28;20415;-85
2022/03/20 01:16:31;;;;;;;18.33;13.98;;;;;;;;;;5023892;28;20435;-85
2022/03/20 01:18:57;;;;;;;19.02;13.07;;;;;;;;;;5024906;28;20432;-85
2022/03/20 01:21:24;;;;;;;20.45;13.50;;;;;;;;;;5025325;28;20911;-85
2022/03/20 01:23:50;;;;;;;19.20;13.67;;;;;;;;;;5026649;28;20502;-84
2022/03/20 01:26:16;;;;;;;20.45;13.52;;;;;;;;;;5024343;28;20449;-85
2022/03/20 01:28:44;;;;;;;23.70;14.65;;;;;;;;;;5025541;28;20441;-85
2022/03/20 01:31:10;;;;;;;19.52;13.93;;;;;;;;;;5027510;28;20449;-84
2022/03/20 01:33:37;;;;;;;20.75;13.80;;;;;;;;;;5027353;28;20431;-84
2022/03/20 01:36:03;;;;;;;23.08;14.70;;;;;;;;;;5024587;28;20489;-85
2022/03/20 01:38:29;;;;;;;21.67;14.82;;;;;;;;;;5026223;28;20435;-86
2022/03/20 01:40:55;;;;;;;20.77;15.10;;;;;;;;;;5024354;28;20430;-85
2022/03/20 01:43:22;;;;;;;20.20;14.98;;;;;;;;;;5024974;28;20419;-85
2022/03/20 01:45:49;;;;;;;21.02;14.30;;;;;;;;;;5025883;28;20418;-85
2022/03/20 01:48:16;;;;;;;19.20;14.40;;;;;;;;;;5023957;28;20428;-85
2022/03/20 01:50:43;;;;;;;22.67;16.02;;;;;;;;;;5025593;28;20853;-84
2022/03/20 01:55:37;;;;;;;20.73;15.98;;;;;;;;;;5048174;28;20459;-84
2022/03/20 01:58:03;;;;;;;23.15;15.88;;;;;;;;;;5047925;28;20502;-82
2022/03/20 02:00:31;;;;;;;22.45;16.30;;;;;;;;;;5050075;28;20429;-84
2022/03/20 02:02:59;;;;;;;24.17;16.92;;;;;;;;;;5046467;28;20427;-84
2022/03/20 02:05:25;;;;;;;24.05;16.27;;;;;;;;;;5049243;28;20432;-85
2022/03/20 02:07:51;;;;;;;20.08;16.65;;;;;;;;;;5045463;28;20426;-85
2022/03/20 02:10:18;;;;;;;21.70;16.70;;;;;;;;;;5043972;28;20479;-85
2022/03/20 02:12:44;;;;;;;22.80;17.08;;;;;;;;;;5047605;28;20417;-84
2022/03/20 02:15:12;;;;;;;24.60;18.10;;;;;;;;;;5048702;28;20845;-84
2022/03/20 02:17:40;;;;;;;24.57;17.83;;;;;;;;;;5048688;28;20422;-83
2022/03/20 02:20:09;;;;;;;24.23;17.20;;;;;;;;;;5046151;28;20916;-83
2022/03/20 02:22:39;;;;;;;25.80;18.35;;;;;;;;;;5046849;28;20442;-84
2022/03/20 02:25:06;;;;;;;24.27;18.00;;;;;;;;;;5047099;28;20415;-83
2022/03/20 02:27:34;;;;;;;26.30;19.30;;;;;;;;;;5045405;28;20411;-84
2022/03/20 02:30:01;;;;;;;26.52;18.70;;;;;;;;;;5046943;28;20415;-84
2022/03/20 02:32:28;;;;;;;25.95;18.83;;;;;;;;;;5047574;28;20417;-84
2022/03/20 02:34:55;;;;;;;24.17;18.48;;;;;;;;;;5047909;28;20891;-84
2022/03/20 02:37:22;;;;;;;28.92;20.52;;;;;;;;;;5048163;28;20494;-85
2022/03/20 02:39:51;;;;;;;26.65;19.02;;;;;;;;;;5046503;28;20429;-85
2022/03/20 02:42:17;;;;;;;26.63;19.33;;;;;;;;;;5043039;28;20504;-85
2022/03/20 02:44:54;;;;;;;26.40;18.40;;;;;;;;;;5046236;28;20431;-84
2022/03/20 02:47:23;;;;;;;27.73;20.63;;;;;;;;;;5046342;28;20830;-84
2022/03/20 02:49:54;;;;;;;27.17;20.47;;;;;;;;;;5047436;28;20451;-85
2022/03/20 02:52:21;;;;;;;27.80;20.73;;;;;;;;;;5041605;28;20443;-84
2022/03/20 02:54:47;;;;;;;27.85;20.60;;;;;;;;;;5047466;28;20429;-84
2022/03/20 02:57:15;;;;;;;28.90;20.60;;;;;;;;;;5044039;28;20958;-85
2022/03/20 02:59:41;;;;;;;29.25;20.98;;;;;;;;;;5048200;28;20771;-85
2022/03/20 03:02:11;;;;;;;29.45;21.23;;;;;;;;;;5046888;28;20419;-84
2022/03/20 03:04:38;;;;;;;28.60;20.35;;;;;;;;;;5050810;28;20427;-84
2022/03/20 03:07:05;;;;;;;28.70;20.37;;;;;;;;;;5045547;28;20495;-84
2022/03/20 03:12:16;;;;;;;31.20;22.27;;;;;;;;;;5044052;28;20413;-85
2022/03/20 03:17:28;;;;;;;29.90;21.50;;;;;;;;;;5047223;28;20436;-84
2022/03/20 03:19:55;;;;;;;29.10;21.40;;;;;;;;;;5044835;28;20513;-84
2022/03/20 03:22:21;;;;;;;31.33;22.23;;;;;;;;;;5048102;28;20460;-84
2022/03/20 03:24:47;;;;;;;33.20;22.58;;;;;;;;;;5047385;28;20419;-84
2022/03/20 03:27:14;;;;;;;29.48;21.65;;;;;;;;;;5044081;28;20427;-84
2022/03/20 03:29:41;;;;;;;29.40;22.45;;;;;;;;;;5043138;28;20429;-84
2022/03/20 03:32:08;;;;;;;29.23;22.05;;;;;;;;;;5041843;28;20422;-83
2022/03/20 03:37:20;;;;;;;27.83;21.50;;;;;;;;;;5043768;28;20435;-84
2022/03/20 03:39:46;;;;;;;30.48;22.33;;;;;;;;;;5043339;28;20432;-83
2022/03/20 03:42:12;;;;;;;31.17;22.80;;;;;;;;;;5043418;28;20425;-84
2022/03/20 03:44:39;;;;;;;30.13;21.90;;;;;;;;;;5042081;28;20419;-84
2022/03/20 03:47:07;;;;;;;31.50;23.85;;;;;;;;;;5044626;28;20803;-84
2022/03/20 03:49:33;;;;;;;31.38;23.65;;;;;;;;;;5042062;28;20413;-83
2022/03/20 03:51:59;;;;;;;31.25;23.10;;;;;;;;;;5042998;28;20527;-84
2022/03/20 03:54:26;;;;;;;32.88;22.98;;;;;;;;;;5043236;28;20425;-84
2022/03/20 03:56:52;;;;;;;30.25;21.70;;;;;;;;;;5046323;28;20424;-83
2022/03/20 03:59:18;;;;;;;29.65;21.25;;;;;;;;;;5044781;28;20439;-84
2022/03/20 04:01:44;;;;;;;30.13;22.47;;;;;;;;;;5040468;28;20999;-84
2022/03/20 04:04:12;;;;;;;30.77;21.80;;;;;;;;;;5044000;28;20413;-84
2022/03/20 04:06:38;;;;;;;33.22;23.60;;;;;;;;;;5044613;28;20422;-84
2022/03/20 04:09:05;;;;;;;28.65;21.27;;;;;;;;;;5041601;28;20429;-84
2022/03/20 04:11:32;;;;;;;29.98;22.70;;;;;;;;;;5045864;28;20487;-85
2022/03/20 04:13:58;;;;;;;30.38;22.38;;;;;;;;;;5044653;28;20450;-84
2022/03/20 04:16:25;;;;;;;32.90;23.40;;;;;;;;;;5043094;28;20451;-84
2022/03/20 04:18:51;;;;;;;31.88;23.98;;;;;;;;;;5042693;28;20427;-84
2022/03/20 04:21:19;;;;;;;32.80;23.27;;;;;;;;;;5043631;28;20497;-84
2022/03/20 04:23:48;;;;;;;31.45;22.52;;;;;;;;;;5043238;28;20797;-83
2022/03/20 04:26:14;;;;;;;34.85;24.23;;;;;;;;;;5046033;28;21034;-84
2022/03/20 04:28:41;;;;;;;32.03;22.83;;;;;;;;;;5044222;28;20825;-84
2022/03/20 04:31:08;;;;;;;31.65;23.65;;;;;;;;;;5049948;28;20953;-84
2022/03/20 04:33:34;;;;;;;35.00;23.80;;;;;;;;;;5045197;28;20855;-84
2022/03/20 04:36:01;;;;;;;30.48;22.58;;;;;;;;;;5046176;28;20441;-84
2022/03/20 04:38:29;;;;;;;30.15;23.40;;;;;;;;;;5044982;28;20419;-85
2022/03/20 04:40:55;;;;;;;32.87;23.97;;;;;;;;;;5045609;28;20440;-84
2022/03/20 04:43:22;;;;;;;31.08;22.00;;;;;;;;;;5046974;28;20463;-84
2022/03/20 04:45:48;;;;;;;33.10;23.55;;;;;;;;;;5047446;28;20415;-84
2022/03/20 04:59:11;;;;;;;32.33;23.70;;;;;;;;;;5048531;28;20775;-84
2022/03/20 05:01:37;;;;;;;31.95;22.92;;;;;;;;;;5051241;28;20976;-84
2022/03/20 05:04:04;;;;;;;33.13;24.80;;;;;;;;;;5052427;28;20439;-84
2022/03/20 05:06:30;;;;;;;35.90;25.55;;;;;;;;;;5049429;28;20419;-84
2022/03/20 05:13:19;;;;;;;29.40;23.00;;;;;;;;;;5047483;28;20423;-84
2022/03/20 05:14:31;;;;;;;32.83;22.90;;;;;;;;;;5015009;28;20828;-84
2022/03/20 05:16:57;;;;;;;33.35;24.17;;;;;;;;;;5048220;28;20504;-84
2022/03/20 05:19:23;;;;;;;36.92;24.58;;;;;;;;;;5047364;28;20845;-84
2022/03/20 05:21:49;;;;;;;31.83;23.50;;;;;;;;;;5047112;28;20415;-84
2022/03/20 05:24:17;;;;;;;33.15;23.90;;;;;;;;;;5048288;28;20849;-84
2022/03/20 05:26:44;;;;;;;32.67;24.13;;;;;;;;;;5047547;28;20909;-83
2022/03/20 05:29:10;;;;;;;33.42;24.10;;;;;;;;;;5048078;28;20417;-85
2022/03/20 05:31:37;;;;;;;32.42;23.05;;;;;;;;;;5049669;28;20490;-84
2022/03/20 05:34:03;;;;;;;34.00;23.80;;;;;;;;;;5047470;28;20919;-85
2022/03/20 05:36:29;;;;;;;31.73;23.90;;;;;;;;;;5048603;28;20913;-84
2022/03/20 05:38:56;;;;;;;36.47;23.88;;;;;;;;;;5049897;28;20448;-84
2022/03/20 05:44:11;;;;;;;32.95;23.45;;;;;;;;;;5050408;28;20412;-84
2022/03/20 05:46:37;;;;;;;34.08;24.80;;;;;;;;;;5047914;28;20419;-84
2022/03/20 05:49:05;;;;;;;30.63;23.20;;;;;;;;;;5047731;28;20912;-84
2022/03/20 05:51:31;;;;;;;32.92;23.60;;;;;;;;;;5049898;28;20427;-83
2022/03/20 05:53:57;;;;;;;33.33;24.95;;;;;;;;;;5047212;28;20419;-84
2022/03/20 05:59:09;;;;;;;32.65;24.05;;;;;;;;;;5047801;28;20428;-84
2022/03/20 06:01:35;;;;;;;30.80;23.47;;;;;;;;;;5047222;28;20407;-84
2022/03/20 06:04:03;;;;;;;31.60;23.77;;;;;;;;;;5049139;28;20439;-84
2022/03/20 06:06:30;;;;;;;32.80;23.42;;;;;;;;;;5049310;28;20422;-84
2022/03/20 06:08:56;;;;;;;30.45;23.23;;;;;;;;;;5047743;28;20429;-84
2022/03/20 06:11:22;;;;;;;33.35;23.00;;;;;;;;;;5050037;28;20947;-84
2022/03/20 06:13:50;;;;;;;32.35;23.38;;;;;;;;;;5048423;28;20854;-84
2022/03/20 06:16:17;;;;;;;29.42;22.50;;;;;;;;;;5049924;28;20429;-84
2022/03/20 06:18:44;;;;;;;32.28;23.35;;;;;;;;;;5053330;28;20425;-84
2022/03/20 06:21:11;;;;;;;34.67;24.17;;;;;;;;;;5052477;28;20437;-84
2022/03/20 06:23:37;;;;;;;30.95;22.50;;;;;;;;;;5051719;28;20442;-84
2022/03/20 06:26:04;;;;;;;32.95;23.42;;;;;;;;;;5052398;28;20814;-84
2022/03/20 06:28:30;;;;;;;29.40;23.17;;;;;;;;;;5050227;28;20495;-84
2022/03/20 06:30:58;;;;;;;35.80;23.55;;;;;;;;;;5051047;28;20475;-84
2022/03/20 06:33:25;;;;;;;32.35;22.58;;;;;;;;;;5050508;28;20421;-84
2022/03/20 06:35:52;;;;;;;28.92;22.40;;;;;;;;;;5053002;28;20418;-84
2022/03/20 06:38:18;;;;;;;32.50;23.45;;;;;;;;;;5049802;28;20424;-84
2022/03/20 06:40:44;;;;;;;32.78;23.45;;;;;;;;;;5053098;28;20430;-84
2022/03/20 06:43:11;;;;;;;31.80;22.93;;;;;;;;;;5050565;28;20483;-84
2022/03/20 06:45:37;;;;;;;33.30;23.63;;;;;;;;;;5050824;28;20418;-84
2022/03/20 06:48:06;;;;;;;32.45;23.10;;;;;;;;;;5048447;28;20431;-82
2022/03/20 06:50:32;;;;;;;30.67;22.73;;;;;;;;;;5050273;28;20430;-84
2022/03/20 06:53:02;;;;;;;28.45;21.58;;;;;;;;;;5048699;28;20429;-85
2022/03/20 06:55:30;;;;;;;31.25;22.52;;;;;;;;;;5051358;28;20518;-84
2022/03/20 06:57:56;;;;;;;31.38;23.25;;;;;;;;;;5048918;28;20488;-84
2022/03/20 07:00:23;;;;;;;32.40;23.95;;;;;;;;;;5044522;28;20438;-84
2022/03/20 07:02:50;;;;;;;30.17;23.48;;;;;;;;;;5050542;28;20429;-84
2022/03/20 07:05:18;;;;;;;30.45;23.05;;;;;;;;;;5050623;28;20947;-84
2022/03/20 07:07:44;;;;;;;29.88;22.98;;;;;;;;;;5049945;28;20487;-83
2022/03/20 07:10:11;;;;;;;28.23;22.40;;;;;;;;;;5049204;28;20967;-84
2022/03/20 07:12:37;;;;;;;32.92;23.70;;;;;;;;;;5050339;28;20439;-84
2022/03/20 07:15:04;;;;;;;35.03;23.55;;;;;;;;;;5050474;28;20420;-84
2022/03/20 07:17:30;;;;;;;29.80;22.57;;;;;;;;;;5051027;28;20927;-84
2022/03/20 07:19:58;;;;;;;32.85;21.90;;;;;;;;;;5048118;28;20418;-83
2022/03/20 07:22:26;;;;;;;28.45;22.65;;;;;;;;;;5051683;28;20444;-83
2022/03/20 07:24:52;;;;;;;32.15;23.17;;;;;;;;;;5050237;28;20425;-85
2022/03/20 07:30:07;;;;;;;32.97;22.67;;;;;;;;;;5050676;28;20444;-85
2022/03/20 07:32:34;;;;;;;28.35;22.13;;;;;;;;;;5049748;28;20435;-84
2022/03/20 07:35:00;;;;;;;29.35;21.83;;;;;;;;;;5048610;28;20417;-83
2022/03/20 07:37:28;;;;;;;26.77;21.33;;;;;;;;;;5048063;28;20427;-82
2022/03/20 07:39:54;;;;;;;30.70;22.95;;;;;;;;;;5044278;28;20415;-80
2022/03/20 07:42:23;;;;;;;27.80;22.45;;;;;;;;;;5044332;28;20429;-82
2022/03/20 07:44:49;;;;;;;33.20;25.10;;;;;;;;;;5042280;28;20463;-83
2022/03/20 07:47:19;;;;;;;31.95;22.50;;;;;;;;;;5034120;28;20902;-83
2022/03/20 07:49:45;;;;;;;33.50;24.35;;;;;;;;;;5043205;28;20428;-82
2022/03/20 07:52:12;;;;;;;29.55;21.55;;;;;;;;;;5041577;28;20837;-82
2022/03/20 07:54:39;;;;;;;30.50;22.85;;;;;;;;;;5054313;23;20449;-79
2022/03/20 07:57:07;;;;;;;29.23;21.17;;;;;;;;;;5037134;28;20498;-78
2022/03/20 07:59:34;;;;;;;27.37;22.43;;;;;;;;;;5032996;28;20625;-79
2022/03/20 08:02:01;;;;;;;30.73;22.03;;;;;;;;;;5037883;28;20520;-81
2022/03/20 08:04:28;;;;;;;32.40;24.63;;;;;;;;;;5043805;28;20910;-79
2022/03/20 08:06:54;;;;;;;30.13;21.83;;;;;;;;;;5045303;28;20485;-78
2022/03/20 08:09:20;;;;;;;28.45;21.75;;;;;;;;;;5043777;28;20433;-78
2022/03/20 08:11:48;;;;;;;27.50;21.63;;;;;;;;;;5042209;28;20417;-78
2022/03/20 08:14:14;;;;;;;28.58;22.42;;;;;;;;;;5042395;28;20423;-79
2022/03/20 08:16:41;;;;;;;28.35;20.77;;;;;;;;;;5040274;28;20821;-78
2022/03/20 08:19:09;;;;;;;29.85;22.75;;;;;;;;;;5044544;28;20432;-79
2022/03/20 08:21:35;;;;;;;32.60;22.40;;;;;;;;;;5035019;28;20425;-82
2022/03/20 08:24:02;;;;;;;28.63;22.65;;;;;;;;;;5038679;28;20794;-79
2022/03/20 08:26:28;;;;;;;31.05;21.92;;;;;;;;;;5043025;28;20445;-80
2022/03/20 08:28:56;;;;;;;28.05;21.85;;;;;;;;;;5042367;28;20461;-79
2022/03/20 08:31:22;;;;;;;28.17;21.42;;;;;;;;;;5037793;28;20916;-80
2022/03/20 08:33:48;;;;;;;27.30;21.30;;;;;;;;;;5043664;28;20451;-80
2022/03/20 08:36:15;;;;;;;29.48;22.42;;;;;;;;;;5045218;28;20514;-80
2022/03/20 08:38:41;;;;;;;31.17;23.50;;;;;;;;;;5045016;28;20969;-79
2022/03/20 08:41:07;;;;;;;30.00;22.80;;;;;;;;;;5043238;28;20437;-80
2022/03/20 08:43:34;;;;;;;30.23;23.05;;;;;;;;;;5043115;28;20491;-80
2022/03/20 08:46:02;;;;;;;30.10;22.48;;;;;;;;;;5038025;28;20463;-81
2022/03/20 08:48:28;;;;;;;27.70;22.42;;;;;;;;;;5042258;28;20469;-79
2022/03/20 08:50:54;;;;;;;31.50;23.58;;;;;;;;;;5044275;28;20441;-80
2022/03/20 08:53:20;;;;;;;29.00;22.77;;;;;;;;;;5044584;28;20425;-78
2022/03/20 08:55:47;;;;;;;29.85;22.67;;;;;;;;;;5045686;28;20427;-80
2022/03/20 08:58:13;;;;;;;33.15;23.88;;;;;;;;;;5041544;28;20421;-79
2022/03/20 09:00:40;;;;;;;30.45;23.67;;;;;;;;;;5042898;28;20982;-80
2022/03/20 09:03:10;;;;;;;29.58;22.75;;;;;;;;;;5044049;28;20778;-79
2022/03/20 09:05:36;;;;;;;30.83;23.45;;;;;;;;;;5045300;28;20440;-79
2022/03/20 09:08:03;;;;;;;33.22;24.10;;;;;;;;;;5044685;28;20472;-77
2022/03/20 09:10:29;;;;;;;31.42;23.20;;;;;;;;;;5040822;28;20538;-77
2022/03/20 09:12:58;;;;;;;30.05;22.80;;;;;;;;;;5037245;28;20790;-80
2022/03/20 09:15:24;;;;;;;31.27;23.45;;;;;;;;;;5024480;28;20431;-80
2022/03/20 09:20:37;;;;;;;33.33;23.50;;;;;;;;;;5044488;28;20401;-79
2022/03/20 09:23:04;;;;;;;32.90;24.02;;;;;;;;;;5042315;28;20756;-79
2022/03/20 09:25:31;;;;;;;31.15;23.50;;;;;;;;;;5042373;28;20470;-79
2022/03/20 09:27:58;;;;;;;30.27;24.20;;;;;;;;;;5024832;28;21123;-80
2022/03/20 09:30:24;;;;;;;31.85;24.80;;;;;;;;;;5037042;28;20439;-82
2022/03/20 09:32:51;;;;;;;30.67;23.10;;;;;;;;;;5037009;28;20411;-78
2022/03/20 09:35:17;;;;;;;31.95;24.45;;;;;;;;;;5036207;28;20479;-80
2022/03/20 09:37:45;;;;;;;31.23;23.67;;;;;;;;;;5035084;28;20462;-79
2022/03/20 09:40:13;;;;;;;29.63;23.70;;;;;;;;;;5042319;28;20566;-79
2022/03/20 09:42:40;;;;;;;33.08;23.42;;;;;;;;;;5041659;28;20437;-80
2022/03/20 09:45:07;;;;;;;31.92;25.27;;;;;;;;;;5043231;28;20418;-80
2022/03/20 09:47:35;;;;;;;30.45;23.80;;;;;;;;;;5042576;28;20434;-80
2022/03/20 09:50:01;;;;;;;29.38;23.60;;;;;;;;;;5042630;28;20938;-79
2022/03/20 09:52:28;;;;;;;30.52;22.95;;;;;;;;;;5041561;28;20464;-80
2022/03/20 09:54:58;;;;;;;31.38;24.52;;;;;;;;;;5037324;28;20435;-80
2022/03/20 09:57:27;;;;;;;29.13;23.38;;;;;;;;;;5043061;28;20442;-79
2022/03/20 09:59:53;;;;;;;29.07;23.10;;;;;;;;;;5040700;28;20518;-80
2022/03/20 10:02:20;;;;;;;32.53;23.10;;;;;;;;;;5043174;28;20444;-79
2022/03/20 10:04:52;;;;;;;29.52;22.95;;;;;;;;;;5041869;28;20454;-80
2022/03/20 10:07:22;;;;;;;29.80;22.27;;;;;;;;;;5040960;28;20776;-80
2022/03/20 10:10:03;;;;;;;27.77;21.70;;;;;;;;;;5037568;28;20464;-80
2022/03/20 10:12:35;;;;;;;27.98;22.27;;;;;;;;;;5042812;28;20421;-80
2022/03/20 10:15:02;;;;;;;27.00;21.42;;;;;;;;;;5041432;28;20417;-80
2022/03/20 10:17:28;;;;;;;27.17;21.67;;;;;;;;;;5045402;28;20419;-80
2022/03/20 10:19:56;;;;;;;29.92;22.05;;;;;;;;;;5042911;28;20414;-79
2022/03/20 10:22:33;;;;;;;26.50;22.02;;;;;;;;;;5027757;28;22276;-79
2022/03/20 10:24:59;;;;;;;27.13;20.50;;;;;;;;;;5040182;28;20425;-80
2022/03/20 10:27:26;;;;;;;27.05;21.00;;;;;;;;;;5038724;28;20442;-80
2022/03/20 10:29:55;;;;;;;25.33;20.40;;;;;;;;;;5033344;28;20427;-78
2022/03/20 10:32:21;;;;;;;26.90;21.10;;;;;;;;;;5039036;28;20434;-81
2022/03/20 10:34:49;;;;;;;26.10;20.67;;;;;;;;;;5039841;28;20456;-79
2022/03/20 10:37:16;;;;;;;28.08;21.58;;;;;;;;;;5038374;28;20905;-81
2022/03/20 10:39:42;;;;;;;24.30;19.85;;;;;;;;;;5035476;28;20487;-79
2022/03/20 10:42:11;;;;;;;26.98;20.60;;;;;;;;;;5036778;28;20432;-80
2022/03/20 10:44:38;;;;;;;28.25;22.10;;;;;;;;;;5040117;28;20433;-80
2022/03/20 10:47:10;;;;;;;26.52;21.33;;;;;;;;;;5036757;28;20431;-80
2022/03/20 10:49:37;;;;;;;25.13;20.30;;;;;;;;;;5038909;28;20476;-80
2022/03/20 10:52:04;;;;;;;28.17;20.02;;;;;;;;;;5035677;28;20451;-80
2022/03/20 10:54:40;;;;;;;24.48;20.52;;;;;;;;;;5039876;28;20437;-81
2022/03/20 10:57:08;;;;;;;26.40;20.05;;;;;;;;;;5038274;28;20416;-80
2022/03/20 10:59:34;;;;;;;27.47;19.70;;;;;;;;;;5036810;28;20461;-80
2022/03/20 11:02:01;;;;;;;25.73;20.02;;;;;;;;;;5039495;28;20848;-81
2022/03/20 11:04:29;;;;;;;24.92;19.55;;;;;;;;;;5038377;28;20421;-81
2022/03/20 11:06:57;;;;;;;23.90;19.03;;;;;;;;;;5033646;28;20434;-82
2022/03/20 11:09:23;;;;;;;23.58;18.73;;;;;;;;;;5035673;28;20440;-81
2022/03/20 11:11:51;;;;;;;22.70;17.00;;;;;;;;;;5036114;28;20497;-79
2022/03/20 11:14:19;;;;;;;21.52;16.58;;;;;;;;;;5039803;28;20508;-80
2022/03/20 11:16:47;;;;;;;20.25;17.17;;;;;;;;;;5040716;28;20482;-79
2022/03/20 11:19:15;;;;;;;20.40;16.55;;;;;;;;;;5038419;28;20822;-80
2022/03/20 11:21:45;;;;;;;21.25;16.60;;;;;;;;;;5039499;28;21047;-80
2022/03/20 11:24:12;;;;;;;21.00;16.23;;;;;;;;;;5040965;28;20512;-79
2022/03/20 11:26:39;;;;;;;20.65;15.95;;;;;;;;;;5036006;28;20438;-79
2022/03/20 11:29:07;;;;;;;19.08;15.90;;;;;;;;;;5040320;28;20844;-79
2022/03/20 11:31:34;;;;;;;22.13;15.63;;;;;;;;;;5040220;28;20504;-78
2022/03/20 11:34:01;;;;;;;28.55;17.38;;;;;;;;;;5036132;28;20455;-79
2022/03/20 11:36:28;;;;;;;21.67;16.90;;;;;;;;;;5042913;28;20429;-79
2022/03/20 11:39:11;;;;;;;20.20;16.88;;;;;;;;;;5039971;28;20455;-79
2022/03/20 11:41:38;;;;;;;19.63;16.63;;;;;;;;;;5041788;28;20433;-79
2022/03/20 11:44:15;;;;;;;20.88;16.90;;;;;;;;;;5042232;28;20825;-79
2022/03/20 11:46:43;;;;;;;18.80;16.38;;;;;;;;;;5040276;28;20439;-79
2022/03/20 11:49:22;;;;;;;20.20;16.02;;;;;;;;;;5020037;28;20985;-80
2022/03/20 11:51:52;;;;;;;19.33;16.63;;;;;;;;;;5021984;28;20432;-79
2022/03/20 11:54:20;;;;;;;21.42;15.60;;;;;;;;;;5031544;28;20421;-79
2022/03/20 11:56:48;;;;;;;21.90;16.98;;;;;;;;;;5044785;28;20427;-80
2022/03/20 11:59:44;;;;;;;19.85;16.42;;;;;;;;;;5038789;28;20431;-79
2022/03/20 12:02:13;;;;;;;20.07;15.20;;;;;;;;;;5039368;28;20441;-80
2022/03/20 12:04:45;;;;;;;17.00;14.43;;;;;;;;;;5039564;28;20488;-80
2022/03/20 12:07:17;;;;;;;21.13;15.70;;;;;;;;;;5041820;28;20446;-80
2022/03/20 12:10:02;;;;;;;18.83;15.00;;;;;;;;;;5045061;28;20546;-79
2022/03/20 12:12:34;;;;;;;18.92;15.40;;;;;;;;;;5043088;28;20430;-80
2022/03/20 12:15:07;;;;;;;17.00;14.50;;;;;;;;;;5041935;28;20892;-79
2022/03/20 12:17:48;;;;;;;17.37;15.40;;;;;;;;;;5047527;28;20413;-80
2022/03/20 12:20:34;;;;;;;20.88;14.25;;;;;;;;;;5043722;28;20407;-78
2022/03/20 12:23:15;;;;;;;19.75;15.30;;;;;;;;;;5046266;28;20417;-79
2022/03/20 12:25:42;;;;;;;23.25;15.90;;;;;;;;;;5045639;28;20409;-80
2022/03/20 12:28:27;;;;;;;21.90;16.30;;;;;;;;;;5041813;28;21068;-80
2022/03/20 12:30:54;;;;;;;18.70;15.68;;;;;;;;;;5045152;28;20427;-79
2022/03/20 12:33:24;;;;;;;20.27;15.70;;;;;;;;;;5041989;28;20451;-81
2022/03/20 12:35:51;;;;;;;20.52;16.52;;;;;;;;;;5045413;28;20422;-80
2022/03/20 12:38:35;;;;;;;21.00;14.43;;;;;;;;;;5044548;28;20828;-80
2022/03/20 12:41:06;;;;;;;18.63;15.25;;;;;;;;;;5046191;28;20444;-79
2022/03/20 12:43:34;;;;;;;21.52;15.60;;;;;;;;;;5043200;28;20919;-79
2022/03/20 12:46:01;;;;;;;18.60;15.40;;;;;;;;;;5044424;28;20417;-79
2022/03/20 12:48:31;;;;;;;18.90;14.90;;;;;;;;;;5042836;28;20442;-80
2022/03/20 12:50:58;;;;;;;17.73;15.07;;;;;;;;;;5041880;28;20404;-79
2022/03/20 12:53:25;;;;;;;19.67;14.80;;;;;;;;;;5044715;28;20930;-79
2022/03/20 12:55:55;;;;;;;18.08;15.20;;;;;;;;;;5043724;28;20967;-79
2022/03/20 12:58:21;;;;;;;20.30;15.80;;;;;;;;;;5042903;28;20429;-81
2022/03/20 13:00:49;;;;;;;18.77;15.00;;;;;;;;;;5043339;28;20431;-79
2022/03/20 13:03:16;;;;;;;17.50;14.60;;;;;;;;;;5041530;28;20453;-81
2022/03/20 13:05:47;;;;;;;18.70;15.47;;;;;;;;;;5030319;28;20588;-78
2022/03/20 13:08:19;;;;;;;18.80;14.82;;;;;;;;;;5038387;28;20412;-79
2022/03/20 13:10:45;;;;;;;21.20;15.43;;;;;;;;;;5040451;28;20446;-79
2022/03/20 13:13:13;;;;;;;21.73;14.73;;;;;;;;;;5043513;28;20432;-79
2022/03/20 13:15:40;;;;;;;19.95;15.13;;;;;;;;;;5042271;28;20429;-79
2022/03/20 13:18:08;;;;;;;18.80;15.60;;;;;;;;;;5043647;28;20419;-79
2022/03/20 13:20:35;;;;;;;18.60;15.20;;;;;;;;;;5043556;28;20447;-79
2022/03/20 13:23:06;;;;;;;19.05;15.27;;;;;;;;;;5038596;28;21036;-79
2022/03/20 13:25:32;;;;;;;19.58;14.40;;;;;;;;;;5034352;28;20527;-79
2022/03/20 13:27:59;;;;;;;18.90;15.70;;;;;;;;;;5043422;28;20420;-78
2022/03/20 13:30:33;;;;;;;17.05;14.23;;;;;;;;;;5044403;28;20942;-81
2022/03/20 13:32:59;;;;;;;18.67;15.15;;;;;;;;;;5043065;28;20432;-79
2022/03/20 13:35:27;;;;;;;18.03;14.70;;;;;;;;;;5045707;28;20450;-79
2022/03/20 13:37:54;;;;;;;21.83;14.75;;;;;;;;;;5039789;28;20813;-78
2022/03/20 13:40:22;;;;;;;19.60;14.17;;;;;;;;;;5038296;28;20473;-79
2022/03/20 13:42:48;;;;;;;19.83;14.35;;;;;;;;;;5041750;28;20439;-80
2022/03/20 13:45:14;;;;;;;19.35;14.45;;;;;;;;;;5036627;28;20449;-79
2022/03/20 13:47:41;;;;;;;16.40;13.57;;;;;;;;;;5039258;28;20436;-80
2022/03/20 13:50:08;;;;;;;16.35;13.75;;;;;;;;;;5025875;28;20465;-80
2022/03/20 13:52:36;;;;;;;15.30;13.50;;;;;;;;;;5038598;28;20429;-80
2022/03/20 13:55:04;;;;;;;16.40;13.20;;;;;;;;;;5053016;23;20450;-86
2022/03/20 13:57:32;;;;;;;16.42;13.15;;;;;;;;;;5041072;28;20419;-85
2022/03/20 14:00:03;;;;;;;19.27;14.05;;;;;;;;;;5041403;28;20882;-85
2022/03/20 14:02:37;;;;;;;22.13;14.10;;;;;;;;;;5040655;28;20468;-84
2022/03/20 14:05:10;;;;;;;19.90;14.13;;;;;;;;;;5041293;28;20422;-83
2022/03/20 14:07:38;;;;;;;18.80;14.50;;;;;;;;;;5040313;28;20419;-84
2022/03/20 14:10:16;;;;;;;17.98;12.70;;;;;;;;;;5040404;28;20569;-84
2022/03/20 14:12:42;;;;;;;17.40;13.30;;;;;;;;;;5035670;28;20438;-84
2022/03/20 14:15:10;;;;;;;17.92;13.60;;;;;;;;;;5039709;28;20413;-84
2022/03/20 14:17:39;;;;;;;18.00;13.75;;;;;;;;;;5037703;28;20923;-85
2022/03/20 14:20:07;;;;;;;19.45;13.95;;;;;;;;;;5037253;28;20525;-86
2022/03/20 14:22:47;;;;;;;19.20;14.30;;;;;;;;;;5034188;28;20514;-85
2022/03/20 14:25:34;;;;;;;19.27;14.88;;;;;;;;;;5038771;28;20454;-86
2022/03/20 14:28:00;;;;;;;19.25;14.95;;;;;;;;;;5037352;28;20444;-86
2022/03/20 14:41:25;;;;;;;21.43;15.13;;;;;;;;;;5041980;28;20400;-84
2022/03/20 14:44:03;;;;;;;20.27;16.70;;;;;;;;;;5040074;28;20937;-85
2022/03/20 14:46:30;;;;;;;19.05;15.60;;;;;;;;;;5043565;28;20516;-85
2022/03/20 14:48:56;;;;;;;21.90;15.80;;;;;;;;;;5038577;28;20423;-85
2022/03/20 14:51:23;;;;;;;21.20;16.13;;;;;;;;;;5040135;28;20498;-85
2022/03/20 14:53:50;;;;;;;21.65;16.13;;;;;;;;;;5036301;28;20953;-85
2022/03/20 14:56:17;;;;;;;26.75;16.75;;;;;;;;;;5037756;28;20479;-84
2022/03/20 14:58:44;;;;;;;19.73;16.05;;;;;;;;;;5039014;28;20415;-85
2022/03/20 15:01:11;;;;;;;20.50;15.68;;;;;;;;;;5039435;28;20430;-85
2022/03/20 15:03:37;;;;;;;21.42;15.80;;;;;;;;;;5041704;28;20421;-84
2022/03/20 15:06:04;;;;;;;22.67;14.85;;;;;;;;;;5039076;28;20492;-88
2022/03/20 15:11:27;;;;;;;23.38;15.00;;;;;;;;;;5033852;28;20493;-85